Chimney Rock, North Carolina
Current Conditions -  °F | °C
As of 12:24 PM on Saturday 20 Dec 2014 (Local Time) from KAVL Reporting Station
Overcast Overcast  
Wind Chill: 36°   Ceiling: 1700
Heat Index: 41°   Visibility: 10mi
Dew Point: 36°   Wind: 7mph
Humidity: 82%   Direction: 130°SE
Pressure: 30.18"   Gusts: NA
Location:  35.44°N, 82.25°W
Report Text: KAVL 201724Z 13006KT 10SM SCT011 OVC017 05/02 A3018 RMK AO2 T00500022
Loading
Personal Weather Stations






























Interactive Weather Map New forecast layout! Learn more

10-Day Weather Forecast

Advertisements
Track Severe Weather on mobile